createdAt,value
2018-03-11T00:01:04.994Z,49.63
2018-03-11T00:03:32.537Z,48.27
2018-03-11T00:06:01.398Z,45.13
2018-03-11T00:08:28.984Z,49.63
2018-03-11T00:10:56.524Z,46.07
2018-03-11T00:13:24.849Z,50.53
2018-03-11T00:15:52.387Z,46.90
2018-03-11T00:18:19.943Z,44.30
2018-03-11T00:20:47.527Z,40.80
2018-03-11T00:23:15.069Z,44.50
2018-03-11T00:25:42.613Z,42.03
2018-03-11T00:28:10.193Z,45.60
2018-03-11T00:30:37.735Z,44.27
2018-03-11T00:33:06.524Z,45.00
2018-03-11T00:35:34.682Z,45.73
2018-03-11T00:38:02.227Z,46.80
2018-03-11T00:40:31.474Z,41.40
2018-03-11T00:42:59.039Z,45.90
2018-03-11T00:45:26.593Z,44.70
2018-03-11T00:47:54.712Z,40.57
2018-03-11T00:50:22.289Z,42.43
2018-03-11T00:52:49.864Z,42.13
2018-03-11T00:55:17.389Z,42.20
2018-03-11T00:57:45.768Z,43.27
2018-03-11T01:00:14.078Z,46.23
2018-03-11T01:02:42.308Z,39.23
2018-03-11T01:05:11.683Z,43.33
2018-03-11T01:07:40.019Z,43.03
2018-03-11T01:10:08.394Z,45.50
2018-03-11T01:12:35.970Z,46.97
2018-03-11T01:15:04.683Z,42.80
2018-03-11T01:17:33.476Z,42.63
2018-03-11T01:20:01.023Z,46.47
2018-03-11T01:22:28.729Z,44.80
2018-03-11T01:24:56.264Z,43.73
2018-03-11T01:27:23.791Z,43.10
2018-03-11T01:29:51.395Z,54.40
2018-03-11T01:32:19.242Z,46.37
2018-03-11T01:34:47.397Z,46.27
2018-03-11T01:37:15.774Z,46.70
2018-03-11T01:39:43.363Z,44.43
2018-03-11T01:42:11.646Z,53.10
2018-03-11T01:44:40.056Z,51.33
2018-03-11T01:47:08.600Z,57.30
2018-03-11T01:49:36.873Z,52.97
2018-03-11T01:52:04.435Z,56.90
2018-03-11T01:54:32.665Z,50.47
2018-03-11T01:57:00.220Z,42.70
2018-03-11T01:59:28.388Z,41.00
2018-03-11T02:01:55.996Z,45.90
2018-03-11T02:04:23.547Z,52.00
2018-03-11T02:06:51.698Z,44.73
2018-03-11T02:09:19.275Z,44.30
2018-03-11T02:11:46.792Z,40.83
2018-03-11T02:14:15.096Z,43.03
2018-03-11T02:16:42.670Z,47.17
2018-03-11T02:19:10.247Z,42.20
2018-03-11T02:21:37.793Z,46.33
2018-03-11T02:24:07.226Z,41.00
2018-03-11T02:26:35.055Z,44.93
2018-03-11T02:29:02.988Z,49.33
2018-03-11T02:31:30.603Z,44.03
2018-03-11T02:33:58.956Z,51.20
2018-03-11T02:36:26.475Z,44.83
2018-03-11T02:38:54.068Z,42.07
2018-03-11T02:41:21.596Z,47.00
2018-03-11T02:43:49.274Z,48.10
2018-03-11T02:46:17.612Z,49.83
2018-03-11T02:48:45.877Z,50.90
2018-03-11T02:51:13.413Z,48.03
2018-03-11T02:53:41.014Z,45.73
2018-03-11T02:56:08.558Z,47.27
2018-03-11T02:58:37.272Z,48.20
2018-03-11T03:01:06.627Z,46.50
2018-03-11T03:03:34.165Z,47.60
2018-03-11T03:06:01.855Z,44.90
2018-03-11T03:08:30.203Z,46.60
2018-03-11T03:10:58.513Z,42.90
2018-03-11T03:13:26.111Z,44.07
2018-03-11T03:15:54.195Z,42.33
2018-03-11T03:18:22.534Z,42.30
2018-03-11T03:20:50.197Z,48.20
2018-03-11T03:23:18.379Z,43.70
2018-03-11T03:25:45.968Z,44.03
2018-03-11T03:28:13.527Z,48.00
2018-03-11T03:30:41.711Z,42.63
2018-03-11T03:33:09.897Z,43.30
2018-03-11T03:35:38.231Z,40.73
2018-03-11T03:38:05.768Z,37.27
2018-03-11T03:40:33.343Z,39.77
2018-03-11T03:43:01.087Z,40.53
2018-03-11T03:45:28.630Z,38.70
2018-03-11T03:47:56.223Z,40.60
2018-03-11T03:50:24.707Z,39.30
2018-03-11T03:52:52.237Z,34.30
2018-03-11T03:55:20.774Z,40.57
2018-03-11T03:57:49.826Z,38.97
2018-03-11T04:00:17.361Z,50.73
2018-03-11T04:02:44.918Z,39.93
2018-03-11T04:05:14.136Z,40.33
2018-03-11T04:07:41.681Z,37.53
2018-03-11T04:10:11.238Z,44.60
2018-03-11T04:12:39.707Z,47.00
2018-03-11T04:15:08.836Z,42.07
2018-03-11T04:17:36.455Z,43.50
2018-03-11T04:20:05.478Z,39.37
2018-03-11T04:22:33.025Z,48.30
2018-03-11T04:25:00.619Z,45.50
2018-03-11T04:27:28.971Z,42.77
2018-03-11T04:29:56.502Z,43.13
2018-03-11T04:32:24.363Z,49.20
2018-03-11T04:34:52.664Z,43.23
2018-03-11T04:37:20.189Z,42.97
2018-03-11T04:39:47.782Z,38.87
2018-03-11T04:42:15.326Z,47.57
2018-03-11T04:44:43.594Z,46.27
2018-03-11T04:47:11.165Z,42.40
2018-03-11T04:49:39.287Z,43.30
2018-03-11T04:52:07.620Z,47.87
2018-03-11T04:54:35.150Z,49.27
2018-03-11T04:57:03.166Z,44.60
2018-03-11T04:59:31.010Z,51.73
2018-03-11T05:02:02.066Z,37.67
2018-03-11T05:04:29.591Z,48.93
2018-03-11T05:06:57.187Z,42.47
2018-03-11T05:09:24.695Z,53.40
2018-03-11T05:11:52.248Z,44.30
2018-03-11T05:14:19.834Z,47.80
2018-03-11T05:16:48.158Z,42.73
2018-03-11T05:19:15.703Z,45.67
2018-03-11T05:21:43.263Z,48.47
2018-03-11T05:24:10.913Z,52.13
2018-03-11T05:26:38.457Z,40.73
2018-03-11T05:29:06.533Z,35.47
2018-03-11T05:31:34.140Z,43.20
2018-03-11T05:34:01.678Z,53.50
2018-03-11T05:36:29.280Z,42.90
2018-03-11T05:38:57.265Z,40.10
2018-03-11T05:41:24.825Z,46.10
2018-03-11T05:43:53.351Z,43.17
2018-03-11T05:46:20.864Z,39.70
2018-03-11T05:48:48.918Z,52.97
2018-03-11T05:51:17.348Z,55.40
2018-03-11T05:53:44.856Z,51.70
2018-03-11T05:56:13.181Z,41.30
2018-03-11T05:58:41.675Z,41.17
2018-03-11T06:01:09.586Z,39.53
2018-03-11T06:03:37.880Z,36.80
2018-03-11T06:06:05.473Z,39.37
2018-03-11T06:08:33.015Z,36.67
2018-03-11T06:11:00.539Z,48.43
2018-03-11T06:13:28.986Z,38.13
2018-03-11T06:15:56.523Z,32.63
2018-03-11T06:18:24.046Z,36.03
2018-03-11T06:20:52.419Z,56.03
2018-03-11T06:23:19.981Z,39.90
2018-03-11T06:25:49.124Z,35.67
2018-03-11T06:28:16.709Z,38.20
2018-03-11T06:30:44.271Z,35.97
2018-03-11T06:33:12.398Z,35.57
2018-03-11T06:35:40.106Z,30.13
2018-03-11T06:38:07.650Z,38.20
2018-03-11T06:40:35.183Z,32.30
2018-03-11T06:43:02.779Z,35.47
2018-03-11T06:45:30.789Z,33.90
2018-03-11T06:47:58.305Z,32.87
2018-03-11T06:50:25.887Z,31.67
2018-03-11T06:52:53.927Z,29.40
2018-03-11T06:55:21.458Z,28.90
2018-03-11T06:57:49.055Z,37.33
2018-03-11T07:00:16.612Z,26.00
2018-03-11T07:02:44.730Z,30.57
2018-03-11T07:05:12.452Z,35.60
2018-03-11T07:07:40.010Z,28.20
2018-03-11T07:10:07.548Z,27.27
2018-03-11T07:12:35.150Z,30.33
2018-03-11T07:15:02.719Z,28.57
2018-03-11T07:17:30.248Z,22.03
2018-03-11T07:19:57.823Z,24.07
2018-03-11T07:22:26.919Z,25.63
2018-03-11T07:24:54.453Z,27.63
2018-03-11T07:27:22.000Z,19.23
2018-03-11T07:29:49.850Z,23.10
2018-03-11T07:32:17.390Z,25.23
2018-03-11T07:34:45.015Z,24.30
2018-03-11T07:37:13.377Z,24.93
2018-03-11T07:39:41.503Z,24.67
2018-03-11T07:42:09.506Z,21.87
2018-03-11T07:44:37.038Z,23.83
2018-03-11T07:47:05.506Z,19.43
2018-03-11T07:49:33.080Z,21.20
2018-03-11T07:52:00.892Z,23.47
2018-03-11T07:54:29.238Z,19.70
2018-03-11T07:56:58.385Z,20.40
2018-03-11T07:59:25.912Z,16.53
2018-03-11T08:01:54.257Z,20.83
2018-03-11T08:04:22.546Z,18.00
2018-03-11T08:06:50.107Z,20.00
2018-03-11T08:09:19.201Z,14.90
2018-03-11T08:11:46.739Z,15.90
2018-03-11T08:14:15.080Z,15.07
2018-03-11T08:16:43.452Z,15.70
2018-03-11T08:19:10.982Z,15.63
2018-03-11T08:21:38.570Z,19.80
2018-03-11T08:24:07.255Z,15.57
2018-03-11T08:26:34.840Z,16.27
2018-03-11T08:29:05.407Z,19.27
2018-03-11T08:31:33.876Z,17.27
2018-03-11T08:34:01.436Z,15.33
2018-03-11T08:36:29.625Z,20.90
2018-03-11T08:38:57.214Z,17.73
2018-03-11T08:41:24.842Z,20.33
2018-03-11T08:43:52.448Z,18.03
2018-03-11T08:46:19.985Z,18.37
2018-03-11T08:48:47.559Z,16.37
2018-03-11T08:51:15.323Z,22.37
2018-03-11T08:53:44.093Z,26.50
2018-03-11T08:56:12.393Z,25.23
2018-03-11T08:58:39.995Z,33.10
2018-03-11T09:01:07.711Z,27.87
2018-03-11T09:03:35.337Z,23.10
2018-03-11T09:06:02.866Z,16.53
2018-03-11T09:08:30.399Z,24.13
2018-03-11T09:10:57.994Z,14.60
2018-03-11T09:13:26.314Z,16.83
2018-03-11T09:15:54.315Z,15.87
2018-03-11T09:18:21.915Z,30.67
2018-03-11T09:20:49.492Z,18.87
2018-03-11T09:23:17.011Z,19.20
2018-03-11T09:25:44.576Z,21.90
2018-03-11T09:28:12.100Z,18.73
2018-03-11T09:30:39.859Z,21.63
2018-03-11T09:33:07.846Z,22.43
2018-03-11T09:35:35.750Z,25.00
2018-03-11T09:38:04.436Z,18.10
2018-03-11T09:40:33.077Z,18.60
2018-03-11T09:43:00.662Z,23.20
2018-03-11T09:45:29.804Z,19.30
2018-03-11T09:47:57.830Z,25.00
2018-03-11T09:50:25.564Z,18.53
2018-03-11T09:52:53.099Z,24.70
2018-03-11T09:55:20.772Z,21.10
2018-03-11T09:57:49.365Z,23.90
2018-03-11T10:00:16.930Z,20.57
2018-03-11T10:02:46.655Z,25.00
2018-03-11T10:05:14.190Z,27.13
2018-03-11T10:07:42.022Z,19.47
2018-03-11T10:10:11.923Z,26.20
2018-03-11T10:12:39.639Z,23.50
2018-03-11T10:15:08.714Z,22.90
2018-03-11T10:17:37.174Z,34.20
2018-03-11T10:20:08.961Z,32.20
2018-03-11T10:22:36.812Z,26.90
2018-03-11T10:25:07.317Z,23.93
2018-03-11T10:27:35.668Z,19.00
2018-03-11T10:30:05.785Z,21.67
2018-03-11T10:32:33.312Z,26.47
2018-03-11T10:35:02.064Z,24.80
2018-03-11T10:37:31.034Z,26.63
2018-03-11T10:39:58.583Z,24.37
2018-03-11T10:42:26.105Z,26.53
2018-03-11T10:44:53.732Z,26.87
2018-03-11T10:47:21.699Z,20.87
2018-03-11T10:49:49.892Z,21.53
2018-03-11T10:52:17.437Z,23.93
2018-03-11T10:54:45.599Z,22.40
2018-03-11T10:57:14.613Z,21.90
2018-03-11T10:59:42.182Z,18.23
2018-03-11T11:02:22.816Z,19.30
2018-03-11T11:04:56.235Z,26.00
2018-03-11T11:07:23.775Z,18.10
2018-03-11T11:09:51.308Z,21.03
2018-03-11T11:12:18.925Z,18.40
2018-03-11T11:14:46.465Z,22.00
2018-03-11T11:17:14.024Z,15.97
2018-03-11T11:19:42.293Z,20.97
2018-03-11T11:22:09.840Z,22.20
2018-03-11T11:24:37.396Z,18.70
2018-03-11T11:27:05.016Z,18.37
2018-03-11T11:29:34.219Z,26.07
2018-03-11T11:32:02.027Z,31.47
2018-03-11T11:34:29.597Z,21.53
2018-03-11T11:36:57.889Z,18.30
2018-03-11T11:39:25.484Z,20.10
2018-03-11T11:41:53.043Z,15.93
2018-03-11T11:44:20.595Z,18.47
2018-03-11T11:46:54.406Z,22.90
2018-03-11T11:49:22.782Z,21.40
2018-03-11T11:51:51.662Z,17.83
2018-03-11T11:54:19.188Z,13.63
2018-03-11T11:56:47.542Z,15.20
2018-03-11T11:59:15.146Z,14.43
2018-03-11T12:01:42.719Z,13.27
2018-03-11T12:04:11.040Z,13.77
2018-03-11T12:06:38.844Z,11.90
2018-03-11T12:09:06.574Z,11.50
2018-03-11T12:11:34.195Z,9.43
2018-03-11T12:14:02.082Z,14.40
2018-03-11T12:16:29.661Z,13.97
2018-03-11T12:18:57.465Z,17.33
2018-03-11T12:21:25.031Z,12.77
2018-03-11T12:23:52.605Z,8.77
2018-03-11T12:26:20.970Z,8.20
2018-03-11T12:28:48.527Z,7.87
2018-03-11T12:31:17.010Z,13.27
2018-03-11T12:33:45.566Z,8.60
2018-03-11T12:36:13.088Z,7.57
2018-03-11T12:38:40.667Z,11.33
2018-03-11T12:41:08.305Z,12.53
2018-03-11T12:43:35.861Z,11.60
2018-03-11T12:46:03.450Z,7.30
2018-03-11T12:48:31.156Z,7.27
2018-03-11T12:50:58.703Z,11.00
2018-03-11T12:53:26.247Z,6.47
2018-03-11T12:55:54.468Z,5.80
2018-03-11T12:58:22.487Z,4.90
2018-03-11T13:00:50.069Z,6.27
2018-03-11T13:03:18.101Z,5.60
2018-03-11T13:05:46.614Z,9.40
2018-03-11T13:08:14.220Z,8.10
2018-03-11T13:10:41.806Z,16.83
2018-03-11T13:13:09.386Z,14.40
2018-03-11T13:15:38.408Z,11.37
2018-03-11T13:18:05.996Z,6.70
2018-03-11T13:20:45.363Z,7.17
2018-03-11T13:23:13.778Z,5.90
2018-03-11T13:25:41.431Z,8.20
2018-03-11T13:28:20.803Z,13.03
2018-03-11T13:30:49.023Z,17.33
2018-03-11T13:33:28.324Z,8.63
2018-03-11T13:35:55.987Z,5.50
2018-03-11T13:38:35.959Z,7.33
2018-03-11T13:41:04.153Z,6.37
2018-03-11T13:43:32.593Z,7.70
2018-03-11T13:46:11.964Z,10.47
2018-03-11T13:48:44.320Z,4.93
2018-03-11T13:51:11.982Z,8.00
2018-03-11T13:53:50.860Z,7.00
2018-03-11T13:56:18.909Z,4.00
2018-03-11T13:58:46.597Z,3.87
2018-03-11T14:01:14.622Z,2.50
2018-03-11T14:03:42.185Z,5.20
2018-03-11T14:06:09.929Z,7.30
2018-03-11T14:08:37.458Z,4.43
2018-03-11T14:11:05.797Z,3.80
2018-03-11T14:13:33.613Z,5.00
2018-03-11T14:16:01.914Z,9.70
2018-03-11T14:18:29.513Z,5.20
2018-03-11T14:20:57.092Z,7.20
2018-03-11T14:23:24.628Z,8.13
2018-03-11T14:25:52.272Z,9.80
2018-03-11T14:28:20.427Z,5.37
2018-03-11T14:30:48.937Z,4.50
2018-03-11T14:33:17.628Z,4.00
2018-03-11T14:35:45.225Z,4.60
2018-03-11T14:38:13.701Z,3.07
2018-03-11T14:40:42.089Z,3.50
2018-03-11T14:43:11.380Z,4.83
2018-03-11T14:45:39.841Z,6.47
2018-03-11T14:48:07.371Z,14.30
2018-03-11T14:50:36.072Z,6.47
2018-03-11T14:53:04.820Z,6.97
2018-03-11T14:55:32.360Z,12.00
2018-03-11T14:57:59.935Z,4.40
2018-03-11T15:00:28.258Z,5.40
2018-03-11T15:02:56.044Z,4.53
2018-03-11T15:05:23.706Z,5.30
2018-03-11T15:07:52.142Z,3.10
2018-03-11T15:10:20.319Z,2.90
2018-03-11T15:12:47.850Z,9.73
2018-03-11T15:15:15.996Z,6.63
2018-03-11T15:17:43.977Z,12.40
2018-03-11T15:20:11.564Z,9.17
2018-03-11T15:22:39.909Z,10.77
2018-03-11T15:25:08.396Z,6.37
2018-03-11T15:27:37.248Z,3.23
2018-03-11T15:30:06.888Z,10.73
2018-03-11T15:32:35.150Z,10.73
2018-03-11T15:35:06.612Z,11.23
2018-03-11T15:37:34.412Z,11.63
2018-03-11T15:40:03.325Z,11.37
2018-03-11T15:42:31.101Z,14.70
2018-03-11T15:44:58.615Z,8.83
2018-03-11T15:47:26.948Z,6.90
2018-03-11T15:49:54.821Z,7.33
2018-03-11T15:52:22.882Z,6.80
2018-03-11T15:54:50.446Z,6.47
2018-03-11T15:57:18.224Z,8.90
2018-03-11T15:59:45.815Z,5.27
2018-03-11T16:02:14.266Z,4.10
2018-03-11T16:04:43.037Z,3.33
2018-03-11T16:07:10.591Z,7.07
2018-03-11T16:09:38.203Z,7.03
2018-03-11T16:12:06.731Z,4.03
2018-03-11T16:14:34.599Z,6.90
2018-03-11T16:17:04.494Z,2.67
2018-03-11T16:19:32.081Z,6.47
2018-03-11T16:21:59.641Z,4.63
2018-03-11T16:24:28.699Z,5.00
2018-03-11T16:26:56.868Z,2.73
2018-03-11T16:29:24.469Z,4.07
2018-03-11T16:31:52.099Z,3.00
2018-03-11T16:34:21.709Z,7.00
2018-03-11T16:36:49.312Z,2.00
2018-03-11T16:39:16.861Z,4.87
2018-03-11T16:41:45.577Z,12.07
2018-03-11T16:44:13.190Z,12.53
2018-03-11T16:46:41.361Z,5.40
2018-03-11T16:49:09.779Z,4.47
2018-03-11T16:51:37.332Z,2.80
2018-03-11T16:54:05.033Z,2.20
2018-03-11T16:56:32.626Z,1.90
2018-03-11T16:59:00.509Z,2.53
2018-03-11T17:01:28.045Z,2.90
2018-03-11T17:03:55.733Z,2.30
2018-03-11T17:06:23.420Z,2.67
2018-03-11T17:08:51.030Z,1.83
2018-03-11T17:11:18.832Z,1.90
2018-03-11T17:13:46.392Z,3.17
2018-03-11T17:16:15.617Z,1.77
2018-03-11T17:18:44.996Z,2.70
2018-03-11T17:21:12.559Z,2.00
2018-03-11T17:23:40.177Z,1.70
2018-03-11T17:26:08.865Z,2.33
2018-03-11T17:28:36.411Z,3.27
2018-03-11T17:31:04.791Z,2.20
2018-03-11T17:33:32.350Z,2.07
2018-03-11T17:36:00.699Z,11.33
2018-03-11T17:38:28.841Z,5.70
2018-03-11T17:40:56.427Z,2.30
2018-03-11T17:43:24.492Z,2.23
2018-03-11T17:45:52.530Z,2.33
2018-03-11T17:48:20.571Z,2.40
2018-03-11T17:50:48.191Z,3.73
2018-03-11T17:53:15.765Z,3.20
2018-03-11T17:55:45.349Z,2.60
2018-03-11T17:58:12.947Z,2.83
2018-03-11T18:00:40.779Z,2.77
2018-03-11T18:03:08.326Z,2.17
2018-03-11T18:05:35.856Z,2.37
2018-03-11T18:08:03.772Z,2.83
2018-03-11T18:10:31.334Z,2.90
2018-03-11T18:13:00.053Z,3.00
2018-03-11T18:15:27.729Z,3.47
2018-03-11T18:17:56.052Z,2.23
2018-03-11T18:20:24.672Z,2.17
2018-03-11T18:22:52.392Z,4.00
2018-03-11T18:25:19.928Z,2.53
2018-03-11T18:27:47.739Z,2.97
2018-03-11T18:30:15.261Z,2.00
2018-03-11T18:32:42.798Z,2.40
2018-03-11T18:35:11.427Z,3.23
2018-03-11T18:37:40.374Z,3.00
2018-03-11T18:40:11.889Z,2.83
2018-03-11T18:42:39.877Z,3.27
2018-03-11T18:45:08.411Z,8.00
2018-03-11T18:47:36.197Z,5.10
2018-03-11T18:50:06.091Z,6.00
2018-03-11T18:52:33.697Z,3.43
2018-03-11T18:55:02.002Z,2.60
2018-03-11T18:57:30.689Z,2.90
2018-03-11T18:59:58.334Z,2.23
2018-03-11T19:02:26.136Z,2.90
2018-03-11T19:04:54.742Z,2.80
2018-03-11T19:07:23.435Z,6.00
2018-03-11T19:09:50.993Z,4.63
2018-03-11T19:12:19.134Z,2.90
2018-03-11T19:14:47.445Z,4.43
2018-03-11T19:17:15.716Z,2.67
2018-03-11T19:19:43.382Z,2.10
2018-03-11T19:22:10.926Z,3.20
2018-03-11T19:24:38.457Z,2.63
2018-03-11T19:27:06.878Z,2.50
2018-03-11T19:29:34.445Z,5.23
2018-03-11T19:32:02.881Z,3.17
2018-03-11T19:34:31.515Z,6.00
2018-03-11T19:36:59.142Z,1.80
2018-03-11T19:39:26.714Z,2.53
2018-03-11T19:41:55.287Z,2.60
2018-03-11T19:44:23.141Z,3.40
2018-03-11T19:46:51.907Z,5.90
2018-03-11T19:49:20.050Z,2.20
2018-03-11T19:51:47.693Z,1.63
2018-03-11T19:54:15.258Z,3.37
2018-03-11T19:56:43.412Z,2.10
2018-03-11T19:59:11.013Z,2.60
2018-03-11T20:01:38.591Z,14.20
2018-03-11T20:04:06.130Z,1.80
2018-03-11T20:06:33.877Z,2.33
2018-03-11T20:09:02.346Z,2.13
2018-03-11T20:11:29.928Z,3.90
2018-03-11T20:13:57.525Z,3.20
2018-03-11T20:16:26.981Z,2.50
2018-03-11T20:18:55.411Z,3.10
2018-03-11T20:21:22.996Z,3.17
2018-03-11T20:23:52.260Z,5.10
2018-03-11T20:26:19.879Z,2.27
2018-03-11T20:28:47.456Z,4.10
2018-03-11T20:31:15.162Z,5.47
2018-03-11T20:33:43.638Z,2.50
2018-03-11T20:36:11.659Z,3.33
2018-03-11T20:38:39.682Z,4.60
2018-03-11T20:41:08.785Z,4.60
2018-03-11T20:43:36.360Z,5.47
2018-03-11T20:46:03.985Z,6.23
2018-03-11T20:48:31.524Z,5.37
2018-03-11T20:50:59.120Z,5.10
2018-03-11T20:53:27.812Z,9.77
2018-03-11T20:55:57.064Z,5.10
2018-03-11T20:58:24.613Z,4.80
2018-03-11T21:00:52.139Z,5.20
2018-03-11T21:03:20.772Z,4.83
2018-03-11T21:05:48.342Z,9.47
2018-03-11T21:08:15.907Z,5.50
2018-03-11T21:10:43.667Z,6.83
2018-03-11T21:13:11.211Z,5.90
2018-03-11T21:15:38.877Z,5.17
2018-03-11T21:18:06.497Z,3.90
2018-03-11T21:20:34.664Z,4.47
2018-03-11T21:23:03.078Z,5.40
2018-03-11T21:25:30.879Z,4.27
2018-03-11T21:27:58.729Z,8.53
2018-03-11T21:30:31.756Z,6.50
2018-03-11T21:32:59.310Z,5.57
2018-03-11T21:35:27.664Z,5.23
2018-03-11T21:37:57.478Z,5.27
2018-03-11T21:40:25.021Z,7.07
2018-03-11T21:42:52.898Z,5.80
2018-03-11T21:45:20.671Z,4.73
2018-03-11T22:00:43.397Z,9.10
2018-03-11T22:03:10.933Z,8.53
2018-03-11T22:05:38.455Z,5.67
2018-03-11T22:08:07.526Z,6.80
2018-03-11T22:10:35.545Z,6.90
2018-03-11T22:13:04.375Z,5.80
2018-03-11T22:15:32.723Z,7.40
2018-03-11T22:18:01.037Z,5.53
2018-03-11T22:20:28.607Z,8.70
2018-03-11T22:22:58.682Z,6.00
2018-03-11T22:25:27.162Z,5.80
2018-03-11T22:27:54.843Z,8.93
2018-03-11T22:30:23.131Z,7.50
2018-03-11T22:32:50.656Z,8.53
2018-03-11T22:35:18.440Z,5.43
2018-03-11T22:37:46.733Z,5.73
2018-03-11T22:40:14.267Z,5.73
2018-03-11T22:42:42.147Z,7.60
2018-03-11T22:45:11.126Z,7.20
2018-03-11T22:47:38.688Z,5.80
2018-03-11T22:50:08.065Z,9.07
2018-03-11T22:52:35.668Z,10.63
2018-03-11T22:55:04.299Z,4.97
2018-03-11T22:57:32.645Z,6.30
2018-03-11T23:00:01.317Z,6.80
2018-03-11T23:02:28.851Z,5.77
2018-03-11T23:04:56.375Z,7.03
2018-03-11T23:07:25.108Z,8.43
2018-03-11T23:09:52.725Z,9.30
2018-03-11T23:12:21.072Z,5.97
2018-03-11T23:14:49.200Z,6.63
2018-03-11T23:17:16.792Z,5.83
2018-03-11T23:19:44.325Z,6.03
2018-03-11T23:22:11.933Z,7.30
2018-03-11T23:24:39.477Z,6.97
2018-03-11T23:27:08.512Z,9.43
2018-03-11T23:29:36.238Z,5.90
2018-03-11T23:32:03.795Z,6.60
2018-03-11T23:34:31.313Z,7.13
2018-03-11T23:36:59.666Z,7.90
2018-03-11T23:39:27.254Z,6.67
2018-03-11T23:41:55.685Z,8.50
2018-03-11T23:44:23.288Z,6.00
2018-03-11T23:46:51.567Z,6.47
2018-03-11T23:49:19.801Z,10.30
2018-03-11T23:51:47.399Z,7.70
2018-03-11T23:54:14.963Z,7.07
2018-03-11T23:56:42.572Z,7.20
2018-03-11T23:59:10.156Z,8.73
